Time;durP1;ratioP1;P1;durP2;ratioP2;P2;SDS_P1;SDS_P2;PMS_P1;PMS_P2;Temp;Humidity;BMP_temperature;BMP_pressure;BME280_temperature;BME280_humidity;BME280_pressure;Samples;Min_cycle;Max_cycle;Signal;HPM_P1;HPM_P2
2023/10/11 00:00:46;;;;;;;;;;;20.40;80.00;;;;;;5025673;28;19919;-54
2023/10/11 00:03:16;;;;;;;;;;;20.40;80.40;;;;;;5026231;28;19996;-55
2023/10/11 00:05:42;;;;;;;;;;;20.40;80.00;;;;;;5025669;28;19913;-54
2023/10/11 00:08:08;;;;;;;;;;;20.40;80.10;;;;;;5024196;28;19921;-54
2023/10/11 00:10:42;;;;;;;;;;;20.40;80.10;;;;;;5025503;28;19920;-54
2023/10/11 00:13:09;;;;;;;;;;;20.50;80.20;;;;;;5038115;28;19909;-55
2023/10/11 00:15:36;;;;;;;;;;;20.40;80.20;;;;;;5021117;28;19928;-54
2023/10/11 00:18:01;;;;;;;;;;;20.40;80.20;;;;;;5024274;28;20440;-55
2023/10/11 00:20:47;;;;;;;;;;;20.40;80.20;;;;;;5024729;28;19925;-55
2023/10/11 00:23:12;;;;;;;;;;;20.40;80.30;;;;;;5028365;28;20015;-54
2023/10/11 00:25:39;;;;;;;;;;;20.40;80.30;;;;;;5023215;28;19913;-54
2023/10/11 00:28:07;;;;;;;;;;;20.40;80.00;;;;;;5024214;28;20299;-57
2023/10/11 00:30:36;;;;;;;;;;;20.40;80.20;;;;;;5023140;28;19922;-54
2023/10/11 00:33:03;;;;;;;;;;;20.40;80.30;;;;;;5024456;28;20329;-55
2023/10/11 00:35:32;;;;;;;;;;;20.40;80.30;;;;;;5024006;28;19913;-55
2023/10/11 00:37:59;;;;;;;;;;;20.40;80.30;;;;;;5023591;28;20361;-55
2023/10/11 00:40:25;;;;;;;;;;;20.40;80.30;;;;;;5021415;28;19921;-54
2023/10/11 00:42:52;;;;;;;;;;;20.40;80.30;;;;;;5023670;28;19936;-54
2023/10/11 00:45:17;;;;;;;;;;;20.40;80.30;;;;;;5023226;28;20372;-55
2023/10/11 00:47:45;;;;;;;;;;;20.30;80.30;;;;;;5024150;28;19937;-55
2023/10/11 00:50:14;;;;;;;;;;;20.40;80.30;;;;;;5006017;28;20598;-55
2023/10/11 00:52:41;;;;;;;;;;;20.40;80.10;;;;;;5024503;28;20071;-55
2023/10/11 00:55:16;;;;;;;;;;;20.30;80.30;;;;;;5024145;28;20390;-54
2023/10/11 00:57:42;;;;;;;;;;;20.40;80.10;;;;;;5029079;28;19989;-55
2023/10/11 01:00:13;;;;;;;;;;;20.40;80.30;;;;;;5021685;28;19967;-55
2023/10/11 01:02:38;;;;;;;;;;;20.40;80.30;;;;;;5024115;28;19921;-54
2023/10/11 01:05:06;;;;;;;;;;;20.30;80.20;;;;;;5023604;28;20539;-55
2023/10/11 01:07:32;;;;;;;;;;;20.30;80.30;;;;;;5024568;28;19913;-55
2023/10/11 01:09:57;;;;;;;;;;;20.30;80.30;;;;;;5022944;28;19917;-55
2023/10/11 01:12:23;;;;;;;;;;;20.30;80.30;;;;;;5023863;28;19964;-55
2023/10/11 01:14:57;;;;;;;;;;;20.30;80.20;;;;;;5020505;28;20312;-54
2023/10/11 01:17:23;;;;;;;;;;;20.30;80.00;;;;;;5022755;28;19971;-54
2023/10/11 01:19:51;;;;;;;;;;;20.40;79.90;;;;;;5022639;28;19929;-54
2023/10/11 01:22:20;;;;;;;;;;;20.40;79.60;;;;;;5021385;28;20373;-54
2023/10/11 01:24:47;;;;;;;;;;;20.40;79.60;;;;;;5020660;28;19964;-54
2023/10/11 01:27:13;;;;;;;;;;;20.40;79.60;;;;;;5023040;28;19964;-54
2023/10/11 01:29:42;;;;;;;;;;;20.40;79.30;;;;;;5021986;28;19965;-55
2023/10/11 01:32:08;;;;;;;;;;;20.40;79.50;;;;;;5022831;28;19936;-55
2023/10/11 01:34:33;;;;;;;;;;;20.50;79.70;;;;;;5024649;28;19921;-55
2023/10/11 01:36:59;;;;;;;;;;;20.40;79.60;;;;;;5022942;28;19917;-54
2023/10/11 01:39:24;;;;;;;;;;;20.40;79.80;;;;;;5023698;28;19917;-54
2023/10/11 01:41:54;;;;;;;;;;;20.40;79.70;;;;;;5024258;28;19919;-54
2023/10/11 01:44:22;;;;;;;;;;;20.40;79.70;;;;;;5022483;28;19914;-55
2023/10/11 01:46:47;;;;;;;;;;;20.40;79.60;;;;;;5023434;28;20369;-54
2023/10/11 01:49:14;;;;;;;;;;;20.40;79.60;;;;;;5023354;28;19935;-54
2023/10/11 01:51:43;;;;;;;;;;;20.40;79.60;;;;;;5023909;28;19952;-54
2023/10/11 01:54:11;;;;;;;;;;;20.40;79.50;;;;;;5029880;28;19917;-55
2023/10/11 01:56:38;;;;;;;;;;;20.40;79.50;;;;;;5024110;28;19987;-55
2023/10/11 01:59:04;;;;;;;;;;;20.40;79.50;;;;;;5021214;28;19983;-55
2023/10/11 02:01:38;;;;;;;;;;;20.40;79.30;;;;;;5024954;28;19913;-54
2023/10/11 02:04:04;;;;;;;;;;;20.40;79.40;;;;;;5030085;28;19925;-55
2023/10/11 02:06:32;;;;;;;;;;;20.40;79.40;;;;;;5022981;28;20296;-54
2023/10/11 02:08:58;;;;;;;;;;;20.40;79.60;;;;;;5022092;28;19917;-55
2023/10/11 02:11:25;;;;;;;;;;;20.30;79.40;;;;;;5022409;28;19921;-55
2023/10/11 02:13:51;;;;;;;;;;;20.30;79.30;;;;;;5022129;28;20309;-54
2023/10/11 02:16:16;;;;;;;;;;;20.40;79.40;;;;;;5022274;28;19921;-55
2023/10/11 02:18:42;;;;;;;;;;;20.40;79.40;;;;;;5022327;28;19968;-55
2023/10/11 02:21:07;;;;;;;;;;;20.40;80.10;;;;;;5024048;28;19918;-55
2023/10/11 02:23:37;;;;;;;;;;;20.40;79.10;;;;;;5019755;28;19921;-54
2023/10/11 02:26:04;;;;;;;;;;;20.40;79.10;;;;;;5023880;28;19935;-55
2023/10/11 02:28:29;;;;;;;;;;;20.30;79.30;;;;;;5022689;28;19965;-54
2023/10/11 02:30:56;;;;;;;;;;;20.30;79.30;;;;;;5021198;28;19964;-55
2023/10/11 02:33:22;;;;;;;;;;;20.30;79.40;;;;;;5023673;28;19943;-55
2023/10/11 02:35:55;;;;;;;;;;;20.30;79.40;;;;;;5023517;28;19913;-54
2023/10/11 02:38:22;;;;;;;;;;;20.30;79.50;;;;;;5019048;28;19917;-54
2023/10/11 02:40:55;;;;;;;;;;;20.30;79.40;;;;;;5019318;28;19952;-55
2023/10/11 02:43:25;;;;;;;;;;;20.40;79.30;;;;;;5024814;28;19913;-55
2023/10/11 02:45:50;;;;;;;;;;;20.20;79.30;;;;;;5020297;28;19920;-55
2023/10/11 02:48:19;;;;;;;;;;;20.20;79.30;;;;;;5022771;28;19916;-55
2023/10/11 02:50:46;;;;;;;;;;;20.20;79.40;;;;;;5020585;28;19914;-55
2023/10/11 02:53:21;;;;;;;;;;;20.20;79.30;;;;;;5023756;28;19913;-54
2023/10/11 02:55:59;;;;;;;;;;;20.20;79.30;;;;;;5021765;28;20284;-54
2023/10/11 02:58:29;;;;;;;;;;;20.20;79.40;;;;;;5017561;28;20234;-55
2023/10/11 03:01:10;;;;;;;;;;;20.20;79.50;;;;;;5019342;28;19917;-55
2023/10/11 03:03:38;;;;;;;;;;;20.30;79.40;;;;;;5021681;28;19913;-54
2023/10/11 03:06:07;;;;;;;;;;;20.30;79.30;;;;;;5020609;28;20354;-55
2023/10/11 03:08:33;;;;;;;;;;;20.20;79.30;;;;;;5023430;28;20294;-55
2023/10/11 03:11:04;;;;;;;;;;;20.30;79.50;;;;;;5020514;28;19921;-55
2023/10/11 03:13:30;;;;;;;;;;;20.20;79.30;;;;;;5028825;28;19917;-54
2023/10/11 03:15:56;;;;;;;;;;;20.20;79.30;;;;;;5021772;28;20361;-55
2023/10/11 03:18:25;;;;;;;;;;;20.20;79.40;;;;;;5019714;28;19913;-54
2023/10/11 03:23:54;;;;;;;;;;;20.20;80.20;;;;;;5022245;28;19928;-55
2023/10/11 03:26:22;;;;;;;;;;;20.20;79.40;;;;;;5033918;28;19917;-54
2023/10/11 03:28:57;;;;;;;;;;;20.20;79.40;;;;;;5023102;28;19947;-55
2023/10/11 03:31:29;;;;;;;;;;;20.20;79.40;;;;;;5025715;28;19912;-55
2023/10/11 03:33:58;;;;;;;;;;;20.20;79.50;;;;;;5022193;28;19921;-55
2023/10/11 03:36:43;;;;;;;;;;;20.20;79.30;;;;;;5021225;28;20456;-54
2023/10/11 03:39:13;;;;;;;;;;;20.20;79.60;;;;;;5023724;28;19927;-55
2023/10/11 03:41:45;;;;;;;;;;;20.20;79.50;;;;;;5025310;28;19924;-55
2023/10/11 03:44:17;;;;;;;;;;;20.10;79.40;;;;;;5024351;28;20341;-55
2023/10/11 03:46:48;;;;;;;;;;;20.20;79.40;;;;;;5025309;28;20003;-54
2023/10/11 03:49:36;;;;;;;;;;;20.10;79.40;;;;;;5025689;28;19924;-55
2023/10/11 03:52:00;;;;;;;;;;;20.10;79.50;;;;;;5025917;28;19959;-55
2023/10/11 03:54:25;;;;;;;;;;;20.10;79.50;;;;;;5027374;28;19917;-54
2023/10/11 03:56:54;;;;;;;;;;;20.10;79.60;;;;;;5026621;28;20374;-54
2023/10/11 03:59:26;;;;;;;;;;;20.10;79.70;;;;;;5025302;28;19917;-54
2023/10/11 04:01:51;;;;;;;;;;;20.10;79.70;;;;;;5025969;28;19935;-53
2023/10/11 04:04:17;;;;;;;;;;;20.10;79.70;;;;;;5026548;28;20373;-54
2023/10/11 04:06:50;;;;;;;;;;;20.10;79.70;;;;;;5027038;28;20405;-55
2023/10/11 04:09:49;;;;;;;;;;;20.10;79.70;;;;;;5027908;28;19917;-54
2023/10/11 04:12:10;;;;;;;;;;;20.10;79.60;;;;;;5018962;28;20360;-56
2023/10/11 04:14:45;;;;;;;;;;;20.10;79.80;;;;;;5024738;28;19925;-55
2023/10/11 04:17:31;;;;;;;;;;;20.00;79.60;;;;;;5022780;28;20480;-54
2023/10/11 04:20:18;;;;;;;;;;;20.00;79.80;;;;;;5024122;28;19921;-54
2023/10/11 04:22:51;;;;;;;;;;;20.00;79.60;;;;;;5021685;28;20309;-55
2023/10/11 04:25:18;;;;;;;;;;;20.00;79.70;;;;;;5030249;28;19967;-54
2023/10/11 04:30:23;;;;;;;;;;;20.00;79.90;;;;;;5023398;28;20307;-54
2023/10/11 04:32:53;;;;;;;;;;;20.00;79.80;;;;;;5024003;28;19917;-54
2023/10/11 04:35:22;;;;;;;;;;;20.00;79.80;;;;;;5021576;28;19921;-54
2023/10/11 04:37:54;;;;;;;;;;;20.00;79.90;;;;;;5008055;28;19921;-54
2023/10/11 04:40:33;;;;;;;;;;;20.00;79.90;;;;;;5023927;28;20385;-55
2023/10/11 04:43:04;;;;;;;;;;;20.00;79.90;;;;;;5022029;28;19979;-54
2023/10/11 04:45:44;;;;;;;;;;;20.00;80.00;;;;;;5023057;28;20008;-54
2023/10/11 04:48:18;;;;;;;;;;;19.90;79.90;;;;;;5032531;28;20373;-54
2023/10/11 04:50:47;;;;;;;;;;;20.00;80.00;;;;;;5022346;28;20449;-55
2023/10/11 04:53:17;;;;;;;;;;;19.90;79.80;;;;;;5025859;28;20004;-54
2023/10/11 04:55:58;;;;;;;;;;;20.00;80.10;;;;;;5023352;28;19919;-54
2023/10/11 04:58:41;;;;;;;;;;;19.90;80.10;;;;;;5027902;28;19964;-55
2023/10/11 05:01:08;;;;;;;;;;;19.90;80.00;;;;;;5021118;28;19913;-55
2023/10/11 05:03:37;;;;;;;;;;;19.90;80.00;;;;;;5021174;28;20386;-55
2023/10/11 05:06:12;;;;;;;;;;;19.90;80.10;;;;;;5023622;28;19967;-55
2023/10/11 05:08:51;;;;;;;;;;;19.90;80.20;;;;;;5022789;28;19917;-55
2023/10/11 05:11:25;;;;;;;;;;;19.90;80.20;;;;;;5022287;28;19996;-55
2023/10/11 05:14:05;;;;;;;;;;;19.90;80.30;;;;;;5026360;28;20003;-54
2023/10/11 05:16:37;;;;;;;;;;;19.90;80.30;;;;;;5021375;28;19960;-55
2023/10/11 05:19:05;;;;;;;;;;;19.90;80.30;;;;;;5027966;28;20003;-55
2023/10/11 05:21:38;;;;;;;;;;;19.90;80.30;;;;;;5023997;28;20361;-54
2023/10/11 05:27:03;;;;;;;;;;;19.90;80.30;;;;;;5023910;28;19970;-55
2023/10/11 05:29:32;;;;;;;;;;;19.90;80.30;;;;;;5025096;28;19921;-55
2023/10/11 05:32:20;;;;;;;;;;;19.90;80.40;;;;;;5024893;28;19913;-54
2023/10/11 05:34:50;;;;;;;;;;;19.80;80.30;;;;;;5027220;28;19967;-55
2023/10/11 05:50:57;;;;;;;;;;;19.80;80.60;;;;;;5022203;28;20273;-55
2023/10/11 05:53:24;;;;;;;;;;;19.80;80.40;;;;;;5021281;28;19913;-55
2023/10/11 05:55:51;;;;;;;;;;;19.80;80.40;;;;;;5022070;28;19917;-55
2023/10/11 05:58:17;;;;;;;;;;;19.80;80.50;;;;;;5023647;28;19924;-55
2023/10/11 06:00:49;;;;;;;;;;;19.80;80.50;;;;;;5020959;28;19909;-55
2023/10/11 06:03:15;;;;;;;;;;;19.80;80.50;;;;;;5028038;28;19960;-53
2023/10/11 06:05:41;;;;;;;;;;;19.80;80.40;;;;;;5024474;28;20333;-55
2023/10/11 06:08:07;;;;;;;;;;;19.80;80.40;;;;;;5022040;28;19971;-54
2023/10/11 06:10:41;;;;;;;;;;;19.80;80.30;;;;;;5022071;28;19913;-54
2023/10/11 06:13:16;;;;;;;;;;;19.70;80.40;;;;;;5027658;28;19975;-55
2023/10/11 06:15:42;;;;;;;;;;;19.80;80.40;;;;;;5020475;28;19988;-55
2023/10/11 06:18:35;;;;;;;;;;;19.70;80.40;;;;;;5019531;28;19921;-55
2023/10/11 06:21:01;;;;;;;;;;;19.70;80.40;;;;;;5022182;28;19996;-55
2023/10/11 06:23:26;;;;;;;;;;;19.80;80.30;;;;;;5021510;28;20016;-55
2023/10/11 06:25:53;;;;;;;;;;;19.80;80.30;;;;;;5024351;28;19913;-54
2023/10/11 06:28:18;;;;;;;;;;;19.80;80.30;;;;;;5037677;28;19920;-54
2023/10/11 06:30:47;;;;;;;;;;;19.80;80.40;;;;;;5020797;28;19929;-55
2023/10/11 06:33:13;;;;;;;;;;;19.70;80.50;;;;;;5023729;28;19917;-54
2023/10/11 06:35:44;;;;;;;;;;;19.70;80.30;;;;;;5025374;28;19929;-54
2023/10/11 06:38:12;;;;;;;;;;;19.80;80.40;;;;;;5030269;28;19960;-55
2023/10/11 06:40:48;;;;;;;;;;;19.80;80.40;;;;;;5023161;28;19931;-55
2023/10/11 06:43:14;;;;;;;;;;;19.70;80.50;;;;;;5023816;28;19921;-55
2023/10/11 06:45:42;;;;;;;;;;;19.70;80.40;;;;;;5018215;28;19967;-55
2023/10/11 06:48:08;;;;;;;;;;;19.70;80.40;;;;;;5022100;28;19975;-55
2023/10/11 06:50:36;;;;;;;;;;;19.80;80.50;;;;;;5019676;28;19921;-54
2023/10/11 06:53:06;;;;;;;;;;;19.70;80.50;;;;;;5021696;28;19913;-55
2023/10/11 06:55:35;;;;;;;;;;;19.80;80.50;;;;;;5036935;28;19917;-55
2023/10/11 06:58:06;;;;;;;;;;;19.80;80.30;;;;;;5028068;28;20258;-55
2023/10/11 07:00:37;;;;;;;;;;;19.90;80.20;;;;;;5030946;28;20448;-55
2023/10/11 07:05:46;;;;;;;;;;;20.20;78.90;;;;;;5026531;28;20020;-55
2023/10/11 07:08:17;;;;;;;;;;;20.30;78.60;;;;;;5032151;28;19924;-55
2023/10/11 07:10:45;;;;;;;;;;;20.50;77.90;;;;;;5028496;28;19913;-54
2023/10/11 07:13:14;;;;;;;;;;;20.60;77.60;;;;;;5025736;28;19913;-55
2023/10/11 07:15:43;;;;;;;;;;;20.70;77.20;;;;;;5019150;28;20384;-55
2023/10/11 07:18:13;;;;;;;;;;;20.80;76.80;;;;;;5025623;28;19917;-55
2023/10/11 07:20:48;;;;;;;;;;;20.90;76.40;;;;;;5025211;28;20016;-54
2023/10/11 07:23:20;;;;;;;;;;;21.00;76.30;;;;;;5028996;28;20237;-54
2023/10/11 07:25:49;;;;;;;;;;;21.00;76.10;;;;;;5026738;28;19952;-54
2023/10/11 07:28:35;;;;;;;;;;;21.00;76.00;;;;;;5027732;28;20019;-54
2023/10/11 07:31:03;;;;;;;;;;;21.10;75.90;;;;;;5028535;28;19958;-55
2023/10/11 07:33:29;;;;;;;;;;;21.20;75.20;;;;;;5026742;28;19940;-54
2023/10/11 07:35:55;;;;;;;;;;;21.40;74.60;;;;;;5024081;28;19925;-54
2023/10/11 07:38:21;;;;;;;;;;;21.60;74.00;;;;;;5027341;28;19928;-55
2023/10/11 07:40:47;;;;;;;;;;;21.70;73.50;;;;;;5029329;28;20000;-55
2023/10/11 07:43:16;;;;;;;;;;;21.80;73.40;;;;;;5025744;28;20032;-55
2023/10/11 07:45:47;;;;;;;;;;;21.70;73.30;;;;;;5028164;28;19913;-55
2023/10/11 07:48:18;;;;;;;;;;;21.70;73.60;;;;;;5025281;28;19917;-55
2023/10/11 07:50:46;;;;;;;;;;;21.60;73.80;;;;;;5023479;28;20008;-54
2023/10/11 07:53:13;;;;;;;;;;;21.60;73.80;;;;;;5026415;28;19971;-53
2023/10/11 07:55:45;;;;;;;;;;;21.60;73.60;;;;;;5022938;28;19917;-54
2023/10/11 07:58:10;;;;;;;;;;;21.60;73.80;;;;;;5030139;28;20324;-54
2023/10/11 08:00:41;;;;;;;;;;;21.50;73.80;;;;;;5028851;28;19922;-54
2023/10/11 08:03:11;;;;;;;;;;;21.50;73.90;;;;;;5036383;28;19913;-54
2023/10/11 08:05:44;;;;;;;;;;;21.50;74.00;;;;;;5021061;28;20408;-54
2023/10/11 08:08:13;;;;;;;;;;;21.50;73.90;;;;;;5029356;28;19913;-54
2023/10/11 08:10:44;;;;;;;;;;;21.50;73.80;;;;;;5033156;28;19921;-55
2023/10/11 08:13:25;;;;;;;;;;;21.50;73.90;;;;;;5032309;28;19951;-54
2023/10/11 08:15:57;;;;;;;;;;;21.50;73.90;;;;;;5029709;28;19913;-55
2023/10/11 08:18:23;;;;;;;;;;;21.50;73.90;;;;;;5039609;28;19913;-55
2023/10/11 08:20:48;;;;;;;;;;;21.50;73.90;;;;;;5011664;28;19932;-54
2023/10/11 08:23:28;;;;;;;;;;;21.50;73.80;;;;;;4996197;28;20432;-54
2023/10/11 08:25:54;;;;;;;;;;;21.50;73.80;;;;;;5002991;28;20000;-54
2023/10/11 08:28:28;;;;;;;;;;;21.60;73.90;;;;;;5013363;28;19921;-54
2023/10/11 08:30:57;;;;;;;;;;;21.60;73.70;;;;;;5017862;28;19972;-55
2023/10/11 08:33:23;;;;;;;;;;;21.60;73.70;;;;;;5011863;28;20100;-55
2023/10/11 08:35:53;;;;;;;;;;;21.60;73.60;;;;;;5011305;28;20024;-55
2023/10/11 08:38:24;;;;;;;;;;;21.60;73.80;;;;;;5013388;28;19917;-54
2023/10/11 08:40:50;;;;;;;;;;;21.60;73.80;;;;;;5017746;28;19913;-54
2023/10/11 08:43:16;;;;;;;;;;;21.60;73.60;;;;;;5021749;28;19909;-54
2023/10/11 08:45:59;;;;;;;;;;;21.60;73.70;;;;;;5009729;28;19920;-53
2023/10/11 08:48:25;;;;;;;;;;;21.60;73.70;;;;;;5003326;28;19943;-55
2023/10/11 08:50:53;;;;;;;;;;;21.70;73.80;;;;;;5011540;28;20277;-55
2023/10/11 08:53:22;;;;;;;;;;;21.70;73.70;;;;;;5006517;28;19917;-54
2023/10/11 08:55:55;;;;;;;;;;;21.60;73.60;;;;;;5011649;28;20289;-55
2023/10/11 08:58:23;;;;;;;;;;;21.70;73.80;;;;;;5013625;28;19914;-55
2023/10/11 09:00:51;;;;;;;;;;;21.70;73.60;;;;;;5010124;28;20360;-55
2023/10/11 09:03:17;;;;;;;;;;;21.80;73.60;;;;;;4992622;28;19968;-54
2023/10/11 09:05:43;;;;;;;;;;;21.80;73.70;;;;;;5005844;28;19913;-54
2023/10/11 09:08:21;;;;;;;;;;;21.70;73.90;;;;;;5013570;28;20591;-55
2023/10/11 09:10:49;;;;;;;;;;;21.70;74.00;;;;;;5012913;28;20008;-53
2023/10/11 09:13:23;;;;;;;;;;;21.70;74.00;;;;;;5010884;28;19962;-54
2023/10/11 09:15:54;;;;;;;;;;;21.70;74.20;;;;;;5007550;28;20289;-55
2023/10/11 09:18:19;;;;;;;;;;;21.60;74.00;;;;;;5010897;28;19921;-54
2023/10/11 09:20:49;;;;;;;;;;;21.70;74.10;;;;;;5025073;28;19967;-54
2023/10/11 09:23:20;;;;;;;;;;;21.80;73.90;;;;;;5034741;28;20365;-54
2023/10/11 09:25:58;;;;;;;;;;;21.80;73.80;;;;;;5036303;28;19958;-55
2023/10/11 09:28:24;;;;;;;;;;;21.70;74.10;;;;;;5029450;28;20585;-55
2023/10/11 09:31:10;;;;;;;;;;;21.70;74.20;;;;;;5025452;28;20334;-54
2023/10/11 09:33:40;;;;;;;;;;;21.70;74.00;;;;;;5031136;28;19917;-54
2023/10/11 09:36:09;;;;;;;;;;;21.70;73.80;;;;;;5027986;28;19920;-56
2023/10/11 09:38:39;;;;;;;;;;;21.70;74.10;;;;;;5027028;28;19921;-55
2023/10/11 09:41:07;;;;;;;;;;;21.70;74.20;;;;;;5031062;28;19962;-55
2023/10/11 09:43:37;;;;;;;;;;;21.70;74.20;;;;;;5028352;28;19946;-55
2023/10/11 09:46:03;;;;;;;;;;;21.70;74.10;;;;;;5028519;28;20328;-54
2023/10/11 09:48:29;;;;;;;;;;;21.70;74.10;;;;;;5015536;28;19917;-55
2023/10/11 09:50:57;;;;;;;;;;;21.70;74.10;;;;;;5020346;28;20282;-55
2023/10/11 09:53:25;;;;;;;;;;;21.70;74.20;;;;;;5029092;28;19917;-55
2023/10/11 09:56:15;;;;;;;;;;;21.70;74.10;;;;;;5029125;28;20348;-55
2023/10/11 09:58:45;;;;;;;;;;;21.70;74.20;;;;;;5022762;28;19947;-55
2023/10/11 10:01:12;;;;;;;;;;;21.70;74.20;;;;;;5030640;28;19916;-55
2023/10/11 10:03:44;;;;;;;;;;;21.70;74.30;;;;;;5027643;28;19951;-53
2023/10/11 10:06:18;;;;;;;;;;;21.70;74.30;;;;;;5029460;28;20361;-55
2023/10/11 10:08:47;;;;;;;;;;;21.80;74.40;;;;;;5036650;28;19961;-55
2023/10/11 10:11:13;;;;;;;;;;;21.80;74.20;;;;;;5028613;28;19928;-55
2023/10/11 10:13:58;;;;;;;;;;;21.80;74.10;;;;;;5022259;28;19921;-55
2023/10/11 10:16:42;;;;;;;;;;;21.80;74.00;;;;;;5028360;28;19966;-55
2023/10/11 10:19:22;;;;;;;;;;;21.90;74.00;;;;;;5025087;28;19921;-54
2023/10/11 10:22:09;;;;;;;;;;;21.90;74.00;;;;;;5029952;28;20409;-54
2023/10/11 10:24:34;;;;;;;;;;;21.80;74.00;;;;;;5019586;28;19961;-55
2023/10/11 10:27:12;;;;;;;;;;;21.80;74.20;;;;;;5031328;28;20067;-55
2023/10/11 10:29:53;;;;;;;;;;;21.80;74.50;;;;;;5035404;28;19917;-55
2023/10/11 10:32:19;;;;;;;;;;;22.00;74.10;;;;;;5027224;28;19909;-54
2023/10/11 10:34:44;;;;;;;;;;;22.60;72.30;;;;;;5028669;28;20350;-55
2023/10/11 10:37:16;;;;;;;;;;;23.00;70.70;;;;;;5029345;28;20054;-55
2023/10/11 10:40:07;;;;;;;;;;;23.20;69.90;;;;;;5035614;28;19944;-55
2023/10/11 10:42:35;;;;;;;;;;;23.30;69.60;;;;;;5026459;28;20297;-55
2023/10/11 10:45:00;;;;;;;;;;;23.50;69.10;;;;;;5026446;28;19912;-55
2023/10/11 10:47:28;;;;;;;;;;;23.70;68.40;;;;;;5028305;28;20372;-55
2023/10/11 10:49:55;;;;;;;;;;;24.10;67.40;;;;;;5027654;28;19948;-54
2023/10/11 10:52:22;;;;;;;;;;;24.30;66.70;;;;;;5031975;28;19963;-54
2023/10/11 10:54:53;;;;;;;;;;;24.50;66.10;;;;;;5025609;28;19922;-55
2023/10/11 10:57:23;;;;;;;;;;;24.50;65.60;;;;;;5027929;28;20003;-55
2023/10/11 10:59:49;;;;;;;;;;;24.60;65.60;;;;;;5025320;28;19971;-55
2023/10/11 11:02:19;;;;;;;;;;;24.70;65.30;;;;;;5027967;28;19921;-56
2023/10/11 11:04:44;;;;;;;;;;;24.70;65.10;;;;;;5028498;28;20385;-54
2023/10/11 11:07:20;;;;;;;;;;;24.70;65.50;;;;;;5027957;28;19920;-54
2023/10/11 11:09:47;;;;;;;;;;;24.50;65.60;;;;;;5021229;28;19924;-54
2023/10/11 11:12:14;;;;;;;;;;;24.40;66.10;;;;;;5030507;28;20250;-55
2023/10/11 11:14:55;;;;;;;;;;;24.30;66.50;;;;;;5028317;28;20296;-54
2023/10/11 11:17:23;;;;;;;;;;;24.30;66.80;;;;;;5029361;28;20109;-55
2023/10/11 11:20:40;;;;;;;;;;;24.30;66.70;;;;;;5023978;28;19983;-55
2023/10/11 11:22:55;;;;;;;;;;;24.30;66.90;;;;;;5026140;28;20297;-55
2023/10/11 11:28:00;;;;;;;;;;;24.00;67.40;;;;;;5026767;28;19990;-55
2023/10/11 11:30:33;;;;;;;;;;;23.90;68.00;;;;;;5026648;28;21815;-54
2023/10/11 11:33:13;;;;;;;;;;;23.80;68.30;;;;;;5034656;28;19917;-55
2023/10/11 11:35:43;;;;;;;;;;;23.70;68.80;;;;;;5029646;28;20004;-54
2023/10/11 11:38:19;;;;;;;;;;;23.60;69.30;;;;;;5024851;28;19968;-54
2023/10/11 11:40:48;;;;;;;;;;;23.50;69.50;;;;;;5022907;28;20238;-54
2023/10/11 11:43:17;;;;;;;;;;;23.40;70.00;;;;;;5027203;28;19968;-55
2023/10/11 11:45:44;;;;;;;;;;;23.40;70.00;;;;;;5025335;28;19921;-55
2023/10/11 11:48:09;;;;;;;;;;;23.40;70.00;;;;;;5034980;28;20400;-55
2023/10/11 11:50:36;;;;;;;;;;;23.40;70.00;;;;;;5033023;28;19917;-56
2023/10/11 11:53:02;;;;;;;;;;;23.50;70.90;;;;;;5029238;28;19956;-54
2023/10/11 11:55:28;;;;;;;;;;;23.60;69.60;;;;;;5029573;28;20031;-54
2023/10/11 11:57:53;;;;;;;;;;;23.80;69.20;;;;;;5031844;28;19917;-55
2023/10/11 12:02:51;;;;;;;;;;;23.70;69.20;;;;;;5039008;28;19921;-55
2023/10/11 12:05:17;;;;;;;;;;;23.70;69.20;;;;;;5036747;28;19913;-54
2023/10/11 12:07:43;;;;;;;;;;;23.80;69.10;;;;;;5029286;28;19998;-54
2023/10/11 12:10:23;;;;;;;;;;;23.70;69.30;;;;;;5031153;28;19921;-55
2023/10/11 12:12:52;;;;;;;;;;;23.70;69.20;;;;;;5048851;28;19919;-55
2023/10/11 12:15:18;;;;;;;;;;;23.70;69.70;;;;;;5027207;28;19913;-56
2023/10/11 12:17:44;;;;;;;;;;;23.50;70.00;;;;;;5031168;28;20559;-53
2023/10/11 12:20:12;;;;;;;;;;;23.50;70.10;;;;;;5031816;28;20365;-55
2023/10/11 12:22:42;;;;;;;;;;;23.50;70.10;;;;;;5030470;28;19913;-55
2023/10/11 12:25:11;;;;;;;;;;;23.40;70.30;;;;;;5034068;28;19912;-53
2023/10/11 12:27:42;;;;;;;;;;;23.40;70.70;;;;;;5030483;28;19913;-55
2023/10/11 12:30:10;;;;;;;;;;;23.30;71.00;;;;;;5032100;28;19931;-55
2023/10/11 12:32:36;;;;;;;;;;;23.20;71.10;;;;;;5032209;28;19917;-54
2023/10/11 12:35:05;;;;;;;;;;;23.20;71.00;;;;;;5033967;28;19916;-54
2023/10/11 12:37:33;;;;;;;;;;;23.30;71.00;;;;;;5024969;28;19928;-55
2023/10/11 12:39:58;;;;;;;;;;;23.30;70.90;;;;;;5031718;28;19921;-55
2023/10/11 12:42:23;;;;;;;;;;;23.40;70.80;;;;;;5032731;28;20427;-56
2023/10/11 12:44:51;;;;;;;;;;;23.40;70.70;;;;;;5032271;28;20439;-56
2023/10/11 12:47:19;;;;;;;;;;;23.50;70.70;;;;;;5030181;28;20266;-56
2023/10/11 12:49:45;;;;;;;;;;;23.50;70.70;;;;;;5033206;28;19975;-54
2023/10/11 12:52:17;;;;;;;;;;;23.50;70.30;;;;;;5029376;28;19913;-56
2023/10/11 12:54:42;;;;;;;;;;;23.60;70.30;;;;;;5034426;28;19917;-56
2023/10/11 12:57:08;;;;;;;;;;;23.50;70.50;;;;;;5027400;28;19980;-55
2023/10/11 12:59:35;;;;;;;;;;;23.50;70.70;;;;;;5031663;28;19917;-56
2023/10/11 13:02:03;;;;;;;;;;;23.50;70.70;;;;;;5032877;28;19921;-55
2023/10/11 13:04:36;;;;;;;;;;;23.40;71.20;;;;;;5036574;28;19965;-55
2023/10/11 13:07:06;;;;;;;;;;;23.50;71.00;;;;;;5036062;28;20329;-56
2023/10/11 13:09:35;;;;;;;;;;;23.40;71.20;;;;;;5029730;28;19976;-55
2023/10/11 13:12:03;;;;;;;;;;;23.30;71.60;;;;;;5033180;28;19913;-55
2023/10/11 13:14:29;;;;;;;;;;;23.20;72.10;;;;;;5031112;28;19921;-54
2023/10/11 13:16:55;;;;;;;;;;;23.20;72.20;;;;;;5031468;28;20285;-55
2023/10/11 13:19:22;;;;;;;;;;;23.10;72.30;;;;;;5031596;28;19921;-55
2023/10/11 13:21:47;;;;;;;;;;;23.10;72.70;;;;;;5029276;28;19913;-55
2023/10/11 13:24:14;;;;;;;;;;;23.10;72.90;;;;;;5028651;28;19967;-56
2023/10/11 13:26:46;;;;;;;;;;;23.10;72.80;;;;;;5031440;28;19917;-56
2023/10/11 13:29:16;;;;;;;;;;;23.20;72.70;;;;;;5030390;28;19931;-54
2023/10/11 13:31:43;;;;;;;;;;;23.20;72.50;;;;;;5034647;28;19963;-54
2023/10/11 13:34:09;;;;;;;;;;;23.20;72.40;;;;;;5031028;28;19917;-54
2023/10/11 13:36:34;;;;;;;;;;;23.30;72.50;;;;;;5029568;28;19943;-54
2023/10/11 13:39:00;;;;;;;;;;;23.30;72.20;;;;;;5024927;28;21513;-56
2023/10/11 13:41:28;;;;;;;;;;;23.50;71.80;;;;;;5028887;28;19924;-55
2023/10/11 13:43:55;;;;;;;;;;;23.50;71.60;;;;;;5027348;28;19920;-54
2023/10/11 13:46:20;;;;;;;;;;;23.50;71.70;;;;;;5027597;28;19914;-55
2023/10/11 13:48:47;;;;;;;;;;;23.50;71.70;;;;;;5033206;28;24138;-54
2023/10/11 13:51:18;;;;;;;;;;;23.60;71.40;;;;;;5029890;28;19952;-54
2023/10/11 13:53:44;;;;;;;;;;;23.70;71.10;;;;;;5027694;28;19955;-55
2023/10/11 13:56:20;;;;;;;;;;;23.50;71.50;;;;;;5033764;28;20381;-55
2023/10/11 13:58:45;;;;;;;;;;;23.40;71.60;;;;;;5034906;28;19924;-55
2023/10/11 14:04:04;;;;;;;;;;;23.40;72.10;;;;;;5026214;28;20005;-54
2023/10/11 14:06:42;;;;;;;;;;;23.60;71.50;;;;;;5017431;28;20377;-53
2023/10/11 14:09:18;;;;;;;;;;;23.60;71.30;;;;;;5028280;28;19944;-55
2023/10/11 14:11:46;;;;;;;;;;;23.70;71.40;;;;;;5024907;28;19913;-55
2023/10/11 14:14:12;;;;;;;;;;;23.50;71.50;;;;;;5027953;28;19924;-54
2023/10/11 14:16:38;;;;;;;;;;;23.50;71.60;;;;;;5030008;28;20003;-55
2023/10/11 14:19:08;;;;;;;;;;;23.70;71.40;;;;;;5022555;28;20427;-56
2023/10/11 14:21:36;;;;;;;;;;;23.70;71.10;;;;;;5019824;28;20322;-55
2023/10/11 14:24:03;;;;;;;;;;;23.70;71.20;;;;;;5030331;28;19913;-54
2023/10/11 14:26:29;;;;;;;;;;;23.50;71.50;;;;;;5021754;28;20400;-55
2023/10/11 14:28:54;;;;;;;;;;;23.60;71.60;;;;;;5022669;28;19921;-55
2023/10/11 14:31:22;;;;;;;;;;;23.60;71.60;;;;;;5016517;28;19913;-55
2023/10/11 14:33:49;;;;;;;;;;;23.60;71.60;;;;;;5025604;28;20381;-55
2023/10/11 14:36:15;;;;;;;;;;;23.70;71.30;;;;;;5031829;28;20727;-53
2023/10/11 14:38:40;;;;;;;;;;;23.60;71.30;;;;;;5029852;28;19921;-54
2023/10/11 14:41:10;;;;;;;;;;;23.60;71.30;;;;;;5028233;28;20031;-55
2023/10/11 14:43:36;;;;;;;;;;;23.60;71.40;;;;;;5034204;28;19978;-56
2023/10/11 14:46:06;;;;;;;;;;;23.70;71.30;;;;;;5031978;28;19943;-55
2023/10/11 14:48:35;;;;;;;;;;;23.60;71.40;;;;;;5020167;28;19925;-54
2023/10/11 14:51:04;;;;;;;;;;;23.60;71.50;;;;;;5029577;28;19919;-54
2023/10/11 14:53:29;;;;;;;;;;;23.60;71.60;;;;;;5030064;28;20305;-55
2023/10/11 14:55:56;;;;;;;;;;;23.70;71.50;;;;;;5028982;28;19971;-55
2023/10/11 14:58:24;;;;;;;;;;;23.80;71.00;;;;;;5025212;28;20507;-55
2023/10/11 15:00:50;;;;;;;;;;;23.70;71.00;;;;;;5029845;28;19939;-55
2023/10/11 15:03:15;;;;;;;;;;;23.60;71.70;;;;;;5028439;28;19917;-55